sensor_id;sensor_type;location;lat;lon;timestamp;P1;durP1;ratioP1;P2;durP2;ratioP2
26080;SDS011;13991;51.174;4.438;2023-11-18T11:06:27;11.00;;;2.53;;
26080;SDS011;13991;51.174;4.438;2023-11-18T13:42:22;2.40;;;0.50;;
26080;SDS011;13991;51.174;4.438;2023-11-18T13:44:53;2.33;;;0.70;;
26080;SDS011;13991;51.174;4.438;2023-11-18T13:47:25;2.13;;;0.70;;
26080;SDS011;13991;51.174;4.438;2023-11-18T13:49:56;5.10;;;0.80;;
26080;SDS011;13991;51.174;4.438;2023-11-18T13:52:25;1.10;;;0.43;;
26080;SDS011;13991;51.174;4.438;2023-11-18T13:55:01;2.30;;;0.40;;
26080;SDS011;13991;51.174;4.438;2023-11-18T13:57:31;0.90;;;0.50;;
26080;SDS011;13991;51.174;4.438;2023-11-18T14:00:00;1.67;;;0.63;;
26080;SDS011;13991;51.174;4.438;2023-11-18T14:02:26;0.40;;;0.40;;
26080;SDS011;13991;51.174;4.438;2023-11-18T14:04:54;2.70;;;0.50;;
26080;SDS011;13991;51.174;4.438;2023-11-18T14:07:22;1.10;;;0.40;;
26080;SDS011;13991;51.174;4.438;2023-11-18T14:09:52;2.23;;;0.60;;
26080;SDS011;13991;51.174;4.438;2023-11-18T14:12:21;2.30;;;0.47;;
26080;SDS011;13991;51.174;4.438;2023-11-18T14:14:47;0.87;;;0.60;;
26080;SDS011;13991;51.174;4.438;2023-11-18T14:39:57;1.05;;;0.50;;
26080;SDS011;13991;51.174;4.438;2023-11-18T14:42:33;3.67;;;0.50;;
26080;SDS011;13991;51.174;4.438;2023-11-18T14:45:00;3.17;;;0.30;;
26080;SDS011;13991;51.174;4.438;2023-11-18T14:47:27;1.63;;;0.33;;
26080;SDS011;13991;51.174;4.438;2023-11-18T14:49:53;2.70;;;0.43;;
26080;SDS011;13991;51.174;4.438;2023-11-18T15:15:39;2.00;;;0.60;;
26080;SDS011;13991;51.174;4.438;2023-11-18T15:18:05;23.53;;;1.20;;
26080;SDS011;13991;51.174;4.438;2023-11-18T15:20:42;1.97;;;0.50;;
26080;SDS011;13991;51.174;4.438;2023-11-18T15:23:08;1.07;;;0.40;;
26080;SDS011;13991;51.174;4.438;2023-11-18T15:25:38;1.60;;;0.47;;
26080;SDS011;13991;51.174;4.438;2023-11-18T15:28:04;1.50;;;0.70;;
26080;SDS011;13991;51.174;4.438;2023-11-18T15:30:40;0.77;;;0.43;;
26080;SDS011;13991;51.174;4.438;2023-11-18T15:33:06;2.60;;;0.70;;
26080;SDS011;13991;51.174;4.438;2023-11-18T15:35:35;2.50;;;0.40;;
26080;SDS011;13991;51.174;4.438;2023-11-18T15:38:06;1.50;;;0.60;;
26080;SDS011;13991;51.174;4.438;2023-11-18T15:40:41;2.27;;;0.73;;
26080;SDS011;13991;51.174;4.438;2023-11-18T15:43:07;6.43;;;0.60;;
26080;SDS011;13991;51.174;4.438;2023-11-18T15:45:36;2.00;;;1.00;;
26080;SDS011;13991;51.174;4.438;2023-11-18T15:48:03;1.43;;;0.70;;
26080;SDS011;13991;51.174;4.438;2023-11-18T15:50:35;1.67;;;0.50;;
26080;SDS011;13991;51.174;4.438;2023-11-18T15:53:02;1.53;;;0.70;;
26080;SDS011;13991;51.174;4.438;2023-11-18T15:55:30;9.23;;;1.00;;
26080;SDS011;13991;51.174;4.438;2023-11-18T15:57:57;1.57;;;0.60;;
26080;SDS011;13991;51.174;4.438;2023-11-18T16:00:23;2.23;;;0.70;;
26080;SDS011;13991;51.174;4.438;2023-11-18T16:02:51;2.60;;;0.67;;
26080;SDS011;13991;51.174;4.438;2023-11-18T16:05:18;1.33;;;0.60;;
26080;SDS011;13991;51.174;4.438;2023-11-18T16:07:49;3.73;;;1.27;;
26080;SDS011;13991;51.174;4.438;2023-11-18T16:10:16;2.30;;;0.93;;
26080;SDS011;13991;51.174;4.438;2023-11-18T16:12:48;3.77;;;1.10;;
26080;SDS011;13991;51.174;4.438;2023-11-18T16:15:21;5.87;;;1.40;;
26080;SDS011;13991;51.174;4.438;2023-11-18T16:17:48;2.90;;;0.93;;
26080;SDS011;13991;51.174;4.438;2023-11-18T16:20:18;3.67;;;0.90;;
26080;SDS011;13991;51.174;4.438;2023-11-18T16:22:46;3.93;;;0.90;;
26080;SDS011;13991;51.174;4.438;2023-11-18T16:25:16;2.90;;;1.00;;
26080;SDS011;13991;51.174;4.438;2023-11-18T16:27:45;6.63;;;1.30;;
26080;SDS011;13991;51.174;4.438;2023-11-18T16:30:11;4.00;;;1.17;;
26080;SDS011;13991;51.174;4.438;2023-11-18T16:32:37;3.93;;;1.40;;
26080;SDS011;13991;51.174;4.438;2023-11-18T16:35:03;7.33;;;1.50;;
26080;SDS011;13991;51.174;4.438;2023-11-18T16:37:33;4.67;;;1.27;;
26080;SDS011;13991;51.174;4.438;2023-11-18T16:39:59;2.17;;;1.00;;
26080;SDS011;13991;51.174;4.438;2023-11-18T16:42:24;2.63;;;1.20;;
26080;SDS011;13991;51.174;4.438;2023-11-18T16:44:53;2.33;;;1.47;;
26080;SDS011;13991;51.174;4.438;2023-11-18T16:47:19;2.97;;;1.37;;
26080;SDS011;13991;51.174;4.438;2023-11-18T16:49:44;7.63;;;2.60;;
26080;SDS011;13991;51.174;4.438;2023-11-18T16:52:10;2.30;;;1.83;;
26080;SDS011;13991;51.174;4.438;2023-11-18T16:54:36;2.97;;;1.20;;
26080;SDS011;13991;51.174;4.438;2023-11-18T16:57:02;3.20;;;1.77;;
26080;SDS011;13991;51.174;4.438;2023-11-18T16:59:28;1.97;;;1.70;;
26080;SDS011;13991;51.174;4.438;2023-11-18T17:01:55;7.53;;;2.10;;
26080;SDS011;13991;51.174;4.438;2023-11-18T17:04:20;2.60;;;1.77;;
26080;SDS011;13991;51.174;4.438;2023-11-18T17:06:46;2.20;;;1.93;;
26080;SDS011;13991;51.174;4.438;2023-11-18T17:09:12;4.90;;;2.27;;
26080;SDS011;13991;51.174;4.438;2023-11-18T17:11:37;4.00;;;2.07;;
26080;SDS011;13991;51.174;4.438;2023-11-18T17:14:03;3.57;;;2.27;;
26080;SDS011;13991;51.174;4.438;2023-11-18T17:16:30;4.97;;;2.40;;
26080;SDS011;13991;51.174;4.438;2023-11-18T17:18:56;11.57;;;2.53;;
26080;SDS011;13991;51.174;4.438;2023-11-18T17:21:22;2.93;;;2.10;;
26080;SDS011;13991;51.174;4.438;2023-11-18T17:23:48;3.43;;;2.37;;
26080;SDS011;13991;51.174;4.438;2023-11-18T17:26:15;4.70;;;2.83;;
26080;SDS011;13991;51.174;4.438;2023-11-18T17:28:41;8.33;;;2.77;;
26080;SDS011;13991;51.174;4.438;2023-11-18T17:31:06;3.33;;;2.63;;
26080;SDS011;13991;51.174;4.438;2023-11-18T17:33:32;5.83;;;3.03;;
26080;SDS011;13991;51.174;4.438;2023-11-18T17:36:00;5.73;;;3.17;;
26080;SDS011;13991;51.174;4.438;2023-11-18T17:38:27;4.30;;;2.87;;
26080;SDS011;13991;51.174;4.438;2023-11-18T17:40:53;3.93;;;2.60;;
26080;SDS011;13991;51.174;4.438;2023-11-18T17:43:18;5.47;;;3.50;;
26080;SDS011;13991;51.174;4.438;2023-11-18T17:45:44;8.47;;;2.87;;
26080;SDS011;13991;51.174;4.438;2023-11-18T17:48:11;6.30;;;3.40;;
26080;SDS011;13991;51.174;4.438;2023-11-18T17:50:38;11.17;;;3.57;;
26080;SDS011;13991;51.174;4.438;2023-11-18T17:53:03;3.80;;;3.03;;
26080;SDS011;13991;51.174;4.438;2023-11-18T17:55:30;7.23;;;3.20;;
26080;SDS011;13991;51.174;4.438;2023-11-18T17:57:56;6.63;;;3.00;;
26080;SDS011;13991;51.174;4.438;2023-11-18T18:00:22;7.77;;;3.77;;
26080;SDS011;13991;51.174;4.438;2023-11-18T18:02:49;6.57;;;3.83;;
26080;SDS011;13991;51.174;4.438;2023-11-18T18:05:15;8.47;;;3.53;;
26080;SDS011;13991;51.174;4.438;2023-11-18T18:07:41;9.87;;;4.20;;
26080;SDS011;13991;51.174;4.438;2023-11-18T18:10:08;6.77;;;3.87;;
26080;SDS011;13991;51.174;4.438;2023-11-18T18:12:35;7.20;;;3.97;;
26080;SDS011;13991;51.174;4.438;2023-11-18T18:15:01;5.40;;;3.67;;
26080;SDS011;13991;51.174;4.438;2023-11-18T18:17:30;4.70;;;3.47;;
26080;SDS011;13991;51.174;4.438;2023-11-18T18:19:56;5.40;;;3.47;;
26080;SDS011;13991;51.174;4.438;2023-11-18T18:22:23;14.63;;;3.77;;
26080;SDS011;13991;51.174;4.438;2023-11-18T18:24:49;5.83;;;3.67;;
26080;SDS011;13991;51.174;4.438;2023-11-18T18:27:14;15.77;;;3.97;;
26080;SDS011;13991;51.174;4.438;2023-11-18T18:29:41;9.00;;;3.80;;
26080;SDS011;13991;51.174;4.438;2023-11-18T18:32:07;8.43;;;4.77;;
26080;SDS011;13991;51.174;4.438;2023-11-18T18:34:35;7.23;;;4.13;;
26080;SDS011;13991;51.174;4.438;2023-11-18T18:37:02;10.87;;;3.80;;
26080;SDS011;13991;51.174;4.438;2023-11-18T18:39:28;7.17;;;3.77;;
26080;SDS011;13991;51.174;4.438;2023-11-18T18:41:54;9.70;;;4.00;;
26080;SDS011;13991;51.174;4.438;2023-11-18T18:44:20;6.43;;;4.07;;
26080;SDS011;13991;51.174;4.438;2023-11-18T18:46:46;13.10;;;4.60;;
26080;SDS011;13991;51.174;4.438;2023-11-18T18:49:12;7.43;;;3.97;;
26080;SDS011;13991;51.174;4.438;2023-11-18T18:51:40;10.83;;;4.50;;
26080;SDS011;13991;51.174;4.438;2023-11-18T18:54:06;8.57;;;4.43;;
26080;SDS011;13991;51.174;4.438;2023-11-18T18:56:31;7.87;;;3.90;;
26080;SDS011;13991;51.174;4.438;2023-11-18T18:58:59;9.67;;;4.67;;
26080;SDS011;13991;51.174;4.438;2023-11-18T19:01:39;7.43;;;3.90;;
26080;SDS011;13991;51.174;4.438;2023-11-18T19:04:09;14.77;;;4.67;;
26080;SDS011;13991;51.174;4.438;2023-11-18T19:06:36;8.90;;;4.87;;
26080;SDS011;13991;51.174;4.438;2023-11-18T19:09:04;9.63;;;4.33;;
26080;SDS011;13991;51.174;4.438;2023-11-18T19:11:33;7.73;;;4.00;;
26080;SDS011;13991;51.174;4.438;2023-11-18T19:13:59;10.63;;;4.20;;
26080;SDS011;13991;51.174;4.438;2023-11-18T19:16:25;13.73;;;5.07;;
26080;SDS011;13991;51.174;4.438;2023-11-18T19:18:51;10.10;;;4.90;;
26080;SDS011;13991;51.174;4.438;2023-11-18T19:21:19;12.20;;;4.87;;
26080;SDS011;13991;51.174;4.438;2023-11-18T19:23:45;9.00;;;4.50;;
26080;SDS011;13991;51.174;4.438;2023-11-18T19:26:10;14.80;;;4.90;;
26080;SDS011;13991;51.174;4.438;2023-11-18T19:28:36;22.53;;;5.90;;
26080;SDS011;13991;51.174;4.438;2023-11-18T19:31:02;14.00;;;5.33;;
26080;SDS011;13991;51.174;4.438;2023-11-18T19:33:28;12.47;;;5.13;;
26080;SDS011;13991;51.174;4.438;2023-11-18T19:35:54;7.30;;;4.63;;
26080;SDS011;13991;51.174;4.438;2023-11-18T19:38:19;7.87;;;4.60;;
26080;SDS011;13991;51.174;4.438;2023-11-18T19:40:45;8.93;;;4.40;;
26080;SDS011;13991;51.174;4.438;2023-11-18T19:43:11;7.10;;;4.37;;
26080;SDS011;13991;51.174;4.438;2023-11-18T19:45:38;12.13;;;5.27;;
26080;SDS011;13991;51.174;4.438;2023-11-18T19:48:04;7.00;;;4.30;;
26080;SDS011;13991;51.174;4.438;2023-11-18T19:50:31;8.00;;;4.63;;
26080;SDS011;13991;51.174;4.438;2023-11-18T19:52:56;8.43;;;4.80;;
26080;SDS011;13991;51.174;4.438;2023-11-18T19:55:22;9.13;;;4.40;;
26080;SDS011;13991;51.174;4.438;2023-11-18T19:57:47;9.10;;;4.77;;
26080;SDS011;13991;51.174;4.438;2023-11-18T20:00:13;6.90;;;4.03;;
26080;SDS011;13991;51.174;4.438;2023-11-18T20:02:43;10.70;;;4.13;;
26080;SDS011;13991;51.174;4.438;2023-11-18T20:05:09;7.87;;;4.17;;
26080;SDS011;13991;51.174;4.438;2023-11-18T20:07:35;7.00;;;4.37;;
26080;SDS011;13991;51.174;4.438;2023-11-18T20:10:00;9.47;;;4.63;;
26080;SDS011;13991;51.174;4.438;2023-11-18T20:12:26;5.93;;;4.20;;
26080;SDS011;13991;51.174;4.438;2023-11-18T20:14:52;13.60;;;4.50;;
26080;SDS011;13991;51.174;4.438;2023-11-18T20:17:18;6.17;;;3.93;;
26080;SDS011;13991;51.174;4.438;2023-11-18T20:19:44;7.33;;;4.10;;
26080;SDS011;13991;51.174;4.438;2023-11-18T20:22:10;9.90;;;4.20;;
26080;SDS011;13991;51.174;4.438;2023-11-18T20:24:36;7.73;;;4.00;;
26080;SDS011;13991;51.174;4.438;2023-11-18T20:27:02;5.63;;;4.00;;
26080;SDS011;13991;51.174;4.438;2023-11-18T20:29:28;9.50;;;4.53;;
26080;SDS011;13991;51.174;4.438;2023-11-18T20:31:54;11.70;;;4.47;;
26080;SDS011;13991;51.174;4.438;2023-11-18T20:34:20;9.43;;;3.93;;
26080;SDS011;13991;51.174;4.438;2023-11-18T20:36:47;9.67;;;3.70;;
26080;SDS011;13991;51.174;4.438;2023-11-18T20:39:13;15.30;;;4.67;;
26080;SDS011;13991;51.174;4.438;2023-11-18T20:41:46;8.63;;;3.60;;
26080;SDS011;13991;51.174;4.438;2023-11-18T20:44:13;7.43;;;4.10;;
26080;SDS011;13991;51.174;4.438;2023-11-18T20:46:39;8.37;;;4.23;;
26080;SDS011;13991;51.174;4.438;2023-11-18T20:49:06;11.50;;;4.40;;
26080;SDS011;13991;51.174;4.438;2023-11-18T20:51:31;13.40;;;4.73;;
26080;SDS011;13991;51.174;4.438;2023-11-18T20:53:57;6.17;;;4.23;;
26080;SDS011;13991;51.174;4.438;2023-11-18T20:56:24;9.20;;;4.00;;
26080;SDS011;13991;51.174;4.438;2023-11-18T20:58:50;10.63;;;4.63;;
26080;SDS011;13991;51.174;4.438;2023-11-18T21:01:16;8.17;;;4.60;;
26080;SDS011;13991;51.174;4.438;2023-11-18T21:03:43;12.13;;;4.50;;
26080;SDS011;13991;51.174;4.438;2023-11-18T21:06:08;7.70;;;4.57;;
26080;SDS011;13991;51.174;4.438;2023-11-18T21:08:34;10.50;;;4.17;;
26080;SDS011;13991;51.174;4.438;2023-11-18T21:11:00;10.83;;;4.70;;
26080;SDS011;13991;51.174;4.438;2023-11-18T21:13:29;10.10;;;4.70;;
26080;SDS011;13991;51.174;4.438;2023-11-18T21:15:56;12.90;;;5.07;;
26080;SDS011;13991;51.174;4.438;2023-11-18T21:18:21;7.53;;;5.07;;
26080;SDS011;13991;51.174;4.438;2023-11-18T21:20:47;8.00;;;4.47;;
26080;SDS011;13991;51.174;4.438;2023-11-18T21:23:13;16.10;;;4.27;;
26080;SDS011;13991;51.174;4.438;2023-11-18T21:25:39;15.33;;;4.40;;
26080;SDS011;13991;51.174;4.438;2023-11-18T21:28:05;9.03;;;4.43;;
26080;SDS011;13991;51.174;4.438;2023-11-18T21:30:31;8.03;;;4.67;;
26080;SDS011;13991;51.174;4.438;2023-11-18T21:32:57;12.47;;;5.53;;
26080;SDS011;13991;51.174;4.438;2023-11-18T21:35:24;12.23;;;4.97;;
26080;SDS011;13991;51.174;4.438;2023-11-18T21:37:50;18.23;;;6.27;;
26080;SDS011;13991;51.174;4.438;2023-11-18T21:40:16;22.73;;;5.90;;
26080;SDS011;13991;51.174;4.438;2023-11-18T21:42:44;13.10;;;6.30;;
26080;SDS011;13991;51.174;4.438;2023-11-18T21:45:10;12.27;;;6.10;;
26080;SDS011;13991;51.174;4.438;2023-11-18T21:47:37;13.00;;;6.63;;
26080;SDS011;13991;51.174;4.438;2023-11-18T21:50:10;16.07;;;6.97;;
26080;SDS011;13991;51.174;4.438;2023-11-18T21:52:41;11.40;;;6.07;;
26080;SDS011;13991;51.174;4.438;2023-11-18T21:55:09;9.87;;;5.67;;
26080;SDS011;13991;51.174;4.438;2023-11-18T21:57:35;10.30;;;5.93;;
26080;SDS011;13991;51.174;4.438;2023-11-18T22:00:05;10.97;;;5.80;;
26080;SDS011;13991;51.174;4.438;2023-11-18T22:02:34;16.93;;;5.37;;
26080;SDS011;13991;51.174;4.438;2023-11-18T22:04:59;8.70;;;4.73;;
26080;SDS011;13991;51.174;4.438;2023-11-18T22:07:25;11.57;;;4.90;;
26080;SDS011;13991;51.174;4.438;2023-11-18T22:09:51;9.13;;;4.70;;
26080;SDS011;13991;51.174;4.438;2023-11-18T22:12:16;7.80;;;4.37;;
26080;SDS011;13991;51.174;4.438;2023-11-18T22:14:42;10.37;;;4.87;;
26080;SDS011;13991;51.174;4.438;2023-11-18T22:17:08;11.13;;;4.40;;
26080;SDS011;13991;51.174;4.438;2023-11-18T22:19:34;14.33;;;4.57;;
26080;SDS011;13991;51.174;4.438;2023-11-18T22:22:00;13.07;;;3.60;;
26080;SDS011;13991;51.174;4.438;2023-11-18T22:24:28;11.30;;;3.80;;
26080;SDS011;13991;51.174;4.438;2023-11-18T22:26:54;10.63;;;3.47;;
26080;SDS011;13991;51.174;4.438;2023-11-18T22:29:21;12.47;;;3.53;;
26080;SDS011;13991;51.174;4.438;2023-11-18T22:31:47;15.37;;;3.10;;
26080;SDS011;13991;51.174;4.438;2023-11-18T22:34:13;12.80;;;3.50;;
26080;SDS011;13991;51.174;4.438;2023-11-18T22:36:39;18.67;;;3.20;;
26080;SDS011;13991;51.174;4.438;2023-11-18T22:39:05;10.87;;;3.07;;
26080;SDS011;13991;51.174;4.438;2023-11-18T22:41:37;8.20;;;2.90;;
26080;SDS011;13991;51.174;4.438;2023-11-18T22:44:04;8.93;;;3.17;;
26080;SDS011;13991;51.174;4.438;2023-11-18T22:46:32;21.83;;;3.07;;
26080;SDS011;13991;51.174;4.438;2023-11-18T22:48:58;14.60;;;3.03;;
26080;SDS011;13991;51.174;4.438;2023-11-18T22:51:24;19.50;;;2.93;;
26080;SDS011;13991;51.174;4.438;2023-11-18T22:53:50;14.20;;;2.40;;
26080;SDS011;13991;51.174;4.438;2023-11-18T22:56:16;18.00;;;3.37;;
26080;SDS011;13991;51.174;4.438;2023-11-18T22:58:44;14.33;;;3.03;;
26080;SDS011;13991;51.174;4.438;2023-11-18T23:01:10;18.57;;;4.33;;
26080;SDS011;13991;51.174;4.438;2023-11-18T23:03:39;19.93;;;4.03;;
26080;SDS011;13991;51.174;4.438;2023-11-18T23:06:05;6.83;;;2.77;;
26080;SDS011;13991;51.174;4.438;2023-11-18T23:08:33;16.10;;;3.97;;
26080;SDS011;13991;51.174;4.438;2023-11-18T23:10:59;13.73;;;3.50;;
26080;SDS011;13991;51.174;4.438;2023-11-18T23:13:25;11.40;;;3.60;;
26080;SDS011;13991;51.174;4.438;2023-11-18T23:15:51;13.53;;;3.73;;
26080;SDS011;13991;51.174;4.438;2023-11-18T23:18:23;12.30;;;3.73;;
26080;SDS011;13991;51.174;4.438;2023-11-18T23:20:48;10.30;;;3.87;;
26080;SDS011;13991;51.174;4.438;2023-11-18T23:23:14;26.57;;;4.00;;
26080;SDS011;13991;51.174;4.438;2023-11-18T23:25:41;5.80;;;2.63;;
26080;SDS011;13991;51.174;4.438;2023-11-18T23:28:07;5.83;;;2.70;;
26080;SDS011;13991;51.174;4.438;2023-11-18T23:30:33;5.83;;;3.00;;
26080;SDS011;13991;51.174;4.438;2023-11-18T23:32:59;9.40;;;2.37;;
26080;SDS011;13991;51.174;4.438;2023-11-18T23:35:25;8.67;;;2.83;;
26080;SDS011;13991;51.174;4.438;2023-11-18T23:37:53;10.43;;;3.20;;
26080;SDS011;13991;51.174;4.438;2023-11-18T23:40:19;8.43;;;2.80;;
26080;SDS011;13991;51.174;4.438;2023-11-18T23:42:45;12.60;;;2.43;;
26080;SDS011;13991;51.174;4.438;2023-11-18T23:45:12;14.27;;;2.87;;
26080;SDS011;13991;51.174;4.438;2023-11-18T23:47:39;9.33;;;2.47;;
26080;SDS011;13991;51.174;4.438;2023-11-18T23:50:09;11.17;;;2.70;;
26080;SDS011;13991;51.174;4.438;2023-11-18T23:52:38;14.37;;;2.67;;
26080;SDS011;13991;51.174;4.438;2023-11-18T23:55:04;14.70;;;2.83;;
26080;SDS011;13991;51.174;4.438;2023-11-18T23:57:33;8.33;;;2.70;;
26080;SDS011;13991;51.174;4.438;2023-11-18T23:59:59;5.83;;;2.43;;
